sensor_id;sensor_type;location;lat;lon;timestamp;P1;durP1;ratioP1;P2;durP2;ratioP2
18780;SDS011;9519;51.890;8.970;2022-08-19T00:03:35;14.52;;;7.97;;
18780;SDS011;9519;51.890;8.970;2022-08-19T00:08:37;12.65;;;7.68;;
18780;SDS011;9519;51.890;8.970;2022-08-19T00:13:40;12.70;;;7.93;;
18780;SDS011;9519;51.890;8.970;2022-08-19T00:18:42;13.75;;;8.27;;
18780;SDS011;9519;51.890;8.970;2022-08-19T00:23:44;12.57;;;7.65;;
18780;SDS011;9519;51.890;8.970;2022-08-19T00:28:48;14.77;;;7.95;;
18780;SDS011;9519;51.890;8.970;2022-08-19T00:33:50;14.30;;;7.57;;
18780;SDS011;9519;51.890;8.970;2022-08-19T00:38:52;12.32;;;7.70;;
18780;SDS011;9519;51.890;8.970;2022-08-19T00:44:01;14.30;;;7.63;;
18780;SDS011;9519;51.890;8.970;2022-08-19T00:49:09;14.35;;;7.75;;
18780;SDS011;9519;51.890;8.970;2022-08-19T00:54:17;15.70;;;8.25;;
18780;SDS011;9519;51.890;8.970;2022-08-19T00:59:22;14.20;;;8.75;;
18780;SDS011;9519;51.890;8.970;2022-08-19T01:04:26;16.50;;;9.63;;
18780;SDS011;9519;51.890;8.970;2022-08-19T01:09:28;13.63;;;9.07;;
18780;SDS011;9519;51.890;8.970;2022-08-19T01:14:33;16.83;;;9.25;;
18780;SDS011;9519;51.890;8.970;2022-08-19T01:19:39;17.58;;;11.38;;
18780;SDS011;9519;51.890;8.970;2022-08-19T01:24:45;17.13;;;10.90;;
18780;SDS011;9519;51.890;8.970;2022-08-19T01:29:48;18.65;;;11.05;;
18780;SDS011;9519;51.890;8.970;2022-08-19T01:34:50;14.88;;;9.70;;
18780;SDS011;9519;51.890;8.970;2022-08-19T01:39:54;15.35;;;9.43;;
18780;SDS011;9519;51.890;8.970;2022-08-19T01:44:56;11.63;;;9.88;;
18780;SDS011;9519;51.890;8.970;2022-08-19T01:49:58;13.60;;;9.93;;
18780;SDS011;9519;51.890;8.970;2022-08-19T01:55:03;15.20;;;11.35;;
18780;SDS011;9519;51.890;8.970;2022-08-19T02:00:12;18.70;;;12.68;;
18780;SDS011;9519;51.890;8.970;2022-08-19T02:05:18;16.83;;;12.55;;
18780;SDS011;9519;51.890;8.970;2022-08-19T02:10:23;19.55;;;13.77;;
18780;SDS011;9519;51.890;8.970;2022-08-19T02:15:25;18.55;;;13.55;;
18780;SDS011;9519;51.890;8.970;2022-08-19T02:20:27;18.02;;;13.25;;
18780;SDS011;9519;51.890;8.970;2022-08-19T02:25:30;16.35;;;13.55;;
18780;SDS011;9519;51.890;8.970;2022-08-19T02:30:32;20.08;;;14.27;;
18780;SDS011;9519;51.890;8.970;2022-08-19T02:35:35;21.42;;;14.23;;
18780;SDS011;9519;51.890;8.970;2022-08-19T02:40:38;18.95;;;14.52;;
18780;SDS011;9519;51.890;8.970;2022-08-19T02:45:44;20.05;;;14.25;;
18780;SDS011;9519;51.890;8.970;2022-08-19T02:50:48;19.75;;;13.60;;
18780;SDS011;9519;51.890;8.970;2022-08-19T02:55:56;21.27;;;14.75;;
18780;SDS011;9519;51.890;8.970;2022-08-19T03:00:58;21.73;;;15.68;;
18780;SDS011;9519;51.890;8.970;2022-08-19T03:06:08;22.15;;;15.70;;
18780;SDS011;9519;51.890;8.970;2022-08-19T03:11:15;23.17;;;15.93;;
18780;SDS011;9519;51.890;8.970;2022-08-19T03:16:20;22.35;;;17.30;;
18780;SDS011;9519;51.890;8.970;2022-08-19T03:21:25;21.25;;;17.58;;
18780;SDS011;9519;51.890;8.970;2022-08-19T03:26:31;21.00;;;17.48;;
18780;SDS011;9519;51.890;8.970;2022-08-19T03:31:35;21.52;;;17.98;;
18780;SDS011;9519;51.890;8.970;2022-08-19T03:36:37;25.65;;;17.98;;
18780;SDS011;9519;51.890;8.970;2022-08-19T03:41:43;27.42;;;20.17;;
18780;SDS011;9519;51.890;8.970;2022-08-19T03:46:48;28.30;;;19.63;;
18780;SDS011;9519;51.890;8.970;2022-08-19T03:51:55;32.35;;;20.20;;
18780;SDS011;9519;51.890;8.970;2022-08-19T03:57:02;33.00;;;22.02;;
18780;SDS011;9519;51.890;8.970;2022-08-19T04:02:07;27.10;;;20.38;;
18780;SDS011;9519;51.890;8.970;2022-08-19T04:07:13;29.15;;;20.42;;
18780;SDS011;9519;51.890;8.970;2022-08-19T04:12:19;28.35;;;20.65;;
18780;SDS011;9519;51.890;8.970;2022-08-19T04:17:21;29.05;;;21.60;;
18780;SDS011;9519;51.890;8.970;2022-08-19T04:22:23;30.25;;;22.77;;
18780;SDS011;9519;51.890;8.970;2022-08-19T04:27:27;29.65;;;22.33;;
18780;SDS011;9519;51.890;8.970;2022-08-19T04:32:29;32.42;;;24.67;;
18780;SDS011;9519;51.890;8.970;2022-08-19T04:37:31;37.42;;;24.50;;
18780;SDS011;9519;51.890;8.970;2022-08-19T04:42:35;31.25;;;24.30;;
18780;SDS011;9519;51.890;8.970;2022-08-19T04:47:41;36.33;;;25.05;;
18780;SDS011;9519;51.890;8.970;2022-08-19T04:52:44;35.00;;;25.38;;
18780;SDS011;9519;51.890;8.970;2022-08-19T04:57:48;36.03;;;24.40;;
18780;SDS011;9519;51.890;8.970;2022-08-19T05:02:51;36.95;;;25.70;;
18780;SDS011;9519;51.890;8.970;2022-08-19T05:07:54;31.08;;;24.45;;
18780;SDS011;9519;51.890;8.970;2022-08-19T05:12:58;35.28;;;24.45;;
18780;SDS011;9519;51.890;8.970;2022-08-19T05:18:00;36.83;;;25.85;;
18780;SDS011;9519;51.890;8.970;2022-08-19T05:23:20;36.47;;;24.27;;
18780;SDS011;9519;51.890;8.970;2022-08-19T05:28:23;35.67;;;24.58;;
18780;SDS011;9519;51.890;8.970;2022-08-19T05:33:25;40.10;;;25.83;;
18780;SDS011;9519;51.890;8.970;2022-08-19T05:38:27;35.05;;;25.58;;
18780;SDS011;9519;51.890;8.970;2022-08-19T05:43:31;33.38;;;24.63;;
18780;SDS011;9519;51.890;8.970;2022-08-19T05:48:33;35.08;;;25.55;;
18780;SDS011;9519;51.890;8.970;2022-08-19T05:53:36;31.05;;;22.05;;
18780;SDS011;9519;51.890;8.970;2022-08-19T05:58:40;27.38;;;21.30;;
18780;SDS011;9519;51.890;8.970;2022-08-19T06:03:42;27.70;;;21.02;;
18780;SDS011;9519;51.890;8.970;2022-08-19T06:08:45;26.02;;;19.52;;
18780;SDS011;9519;51.890;8.970;2022-08-19T06:13:52;26.00;;;20.88;;
18780;SDS011;9519;51.890;8.970;2022-08-19T06:18:56;26.45;;;19.92;;
18780;SDS011;9519;51.890;8.970;2022-08-19T06:24:02;26.65;;;19.25;;
18780;SDS011;9519;51.890;8.970;2022-08-19T06:29:08;24.70;;;18.45;;
18780;SDS011;9519;51.890;8.970;2022-08-19T06:34:13;22.42;;;17.23;;
18780;SDS011;9519;51.890;8.970;2022-08-19T06:39:16;23.98;;;16.63;;
18780;SDS011;9519;51.890;8.970;2022-08-19T06:44:24;18.85;;;15.32;;
18780;SDS011;9519;51.890;8.970;2022-08-19T06:49:36;18.10;;;13.85;;
18780;SDS011;9519;51.890;8.970;2022-08-19T06:54:38;13.57;;;11.77;;
18780;SDS011;9519;51.890;8.970;2022-08-19T06:59:43;16.95;;;10.40;;
18780;SDS011;9519;51.890;8.970;2022-08-19T07:04:45;9.73;;;8.43;;
18780;SDS011;9519;51.890;8.970;2022-08-19T07:09:48;10.73;;;8.68;;
18780;SDS011;9519;51.890;8.970;2022-08-19T07:14:54;12.05;;;8.68;;
18780;SDS011;9519;51.890;8.970;2022-08-19T07:19:58;9.68;;;7.60;;
18780;SDS011;9519;51.890;8.970;2022-08-19T07:25:00;11.40;;;7.40;;
18780;SDS011;9519;51.890;8.970;2022-08-19T07:30:05;8.55;;;7.65;;
18780;SDS011;9519;51.890;8.970;2022-08-19T07:35:11;9.05;;;7.28;;
18780;SDS011;9519;51.890;8.970;2022-08-19T07:40:14;10.30;;;7.10;;
18780;SDS011;9519;51.890;8.970;2022-08-19T07:45:17;9.60;;;6.47;;
18780;SDS011;9519;51.890;8.970;2022-08-19T07:50:20;9.40;;;6.72;;
18780;SDS011;9519;51.890;8.970;2022-08-19T07:55:23;9.18;;;6.28;;
18780;SDS011;9519;51.890;8.970;2022-08-19T08:00:28;13.38;;;7.78;;
18780;SDS011;9519;51.890;8.970;2022-08-19T08:05:30;11.15;;;8.40;;
18780;SDS011;9519;51.890;8.970;2022-08-19T08:10:50;10.80;;;8.02;;
18780;SDS011;9519;51.890;8.970;2022-08-19T08:15:53;12.57;;;8.48;;
18780;SDS011;9519;51.890;8.970;2022-08-19T08:20:56;10.80;;;8.13;;
18780;SDS011;9519;51.890;8.970;2022-08-19T08:25:59;9.38;;;6.70;;
18780;SDS011;9519;51.890;8.970;2022-08-19T08:31:05;11.65;;;7.63;;
18780;SDS011;9519;51.890;8.970;2022-08-19T08:36:07;14.55;;;6.97;;
18780;SDS011;9519;51.890;8.970;2022-08-19T08:41:13;9.57;;;6.68;;
18780;SDS011;9519;51.890;8.970;2022-08-19T08:46:30;9.23;;;6.68;;
18780;SDS011;9519;51.890;8.970;2022-08-19T08:51:42;11.65;;;7.03;;
18780;SDS011;9519;51.890;8.970;2022-08-19T08:56:47;8.82;;;6.30;;
18780;SDS011;9519;51.890;8.970;2022-08-19T09:01:56;8.77;;;5.60;;
18780;SDS011;9519;51.890;8.970;2022-08-19T09:07:04;10.13;;;4.75;;
18780;SDS011;9519;51.890;8.970;2022-08-19T09:12:24;7.28;;;4.57;;
18780;SDS011;9519;51.890;8.970;2022-08-19T09:17:37;8.32;;;5.90;;
18780;SDS011;9519;51.890;8.970;2022-08-19T09:22:40;7.93;;;5.00;;
18780;SDS011;9519;51.890;8.970;2022-08-19T09:27:44;9.32;;;4.90;;
18780;SDS011;9519;51.890;8.970;2022-08-19T09:32:48;6.50;;;4.07;;
18780;SDS011;9519;51.890;8.970;2022-08-19T09:37:53;7.75;;;3.13;;
18780;SDS011;9519;51.890;8.970;2022-08-19T09:42:57;6.75;;;4.32;;
18780;SDS011;9519;51.890;8.970;2022-08-19T09:48:04;7.32;;;4.20;;
18780;SDS011;9519;51.890;8.970;2022-08-19T09:53:06;8.45;;;3.70;;
18780;SDS011;9519;51.890;8.970;2022-08-19T09:58:08;6.05;;;3.40;;
18780;SDS011;9519;51.890;8.970;2022-08-19T10:03:12;6.20;;;3.10;;
18780;SDS011;9519;51.890;8.970;2022-08-19T10:08:15;7.20;;;3.60;;
18780;SDS011;9519;51.890;8.970;2022-08-19T10:13:20;5.97;;;3.60;;
18780;SDS011;9519;51.890;8.970;2022-08-19T10:18:28;6.18;;;3.42;;
18780;SDS011;9519;51.890;8.970;2022-08-19T10:23:33;5.55;;;2.70;;
18780;SDS011;9519;51.890;8.970;2022-08-19T10:28:37;4.97;;;2.90;;
18780;SDS011;9519;51.890;8.970;2022-08-19T10:33:41;5.68;;;2.55;;
18780;SDS011;9519;51.890;8.970;2022-08-19T10:38:44;6.78;;;3.08;;
18780;SDS011;9519;51.890;8.970;2022-08-19T10:43:47;5.35;;;2.67;;
18780;SDS011;9519;51.890;8.970;2022-08-19T10:48:54;4.85;;;2.70;;
18780;SDS011;9519;51.890;8.970;2022-08-19T10:53:56;7.03;;;2.97;;
18780;SDS011;9519;51.890;8.970;2022-08-19T10:59:00;6.18;;;2.67;;
18780;SDS011;9519;51.890;8.970;2022-08-19T11:04:04;4.85;;;2.10;;
18780;SDS011;9519;51.890;8.970;2022-08-19T11:09:09;6.85;;;3.00;;
18780;SDS011;9519;51.890;8.970;2022-08-19T11:14:14;6.07;;;2.47;;
18780;SDS011;9519;51.890;8.970;2022-08-19T11:19:22;5.20;;;2.38;;
18780;SDS011;9519;51.890;8.970;2022-08-19T11:24:24;5.50;;;2.00;;
18780;SDS011;9519;51.890;8.970;2022-08-19T11:29:28;6.60;;;2.38;;
18780;SDS011;9519;51.890;8.970;2022-08-19T11:34:32;7.72;;;2.53;;
18780;SDS011;9519;51.890;8.970;2022-08-19T11:39:35;6.45;;;2.42;;
18780;SDS011;9519;51.890;8.970;2022-08-19T11:44:38;5.63;;;2.28;;
18780;SDS011;9519;51.890;8.970;2022-08-19T11:49:42;6.05;;;2.83;;
18780;SDS011;9519;51.890;8.970;2022-08-19T11:54:44;5.70;;;2.60;;
18780;SDS011;9519;51.890;8.970;2022-08-19T11:59:49;6.90;;;2.50;;
18780;SDS011;9519;51.890;8.970;2022-08-19T12:04:55;5.78;;;2.40;;
18780;SDS011;9519;51.890;8.970;2022-08-19T12:09:57;6.13;;;2.30;;
18780;SDS011;9519;51.890;8.970;2022-08-19T12:15:00;5.95;;;2.40;;
18780;SDS011;9519;51.890;8.970;2022-08-19T12:20:05;4.55;;;2.33;;
18780;SDS011;9519;51.890;8.970;2022-08-19T12:25:10;5.68;;;2.03;;
18780;SDS011;9519;51.890;8.970;2022-08-19T12:30:13;3.97;;;1.88;;
18780;SDS011;9519;51.890;8.970;2022-08-19T12:35:17;3.42;;;1.90;;
18780;SDS011;9519;51.890;8.970;2022-08-19T12:40:21;3.78;;;2.15;;
18780;SDS011;9519;51.890;8.970;2022-08-19T12:45:30;3.53;;;1.90;;
18780;SDS011;9519;51.890;8.970;2022-08-19T12:50:38;3.45;;;1.77;;
18780;SDS011;9519;51.890;8.970;2022-08-19T12:56:04;5.68;;;1.85;;
18780;SDS011;9519;51.890;8.970;2022-08-19T13:12:53;3.85;;;1.80;;
18780;SDS011;9519;51.890;8.970;2022-08-19T13:17:58;3.22;;;1.65;;
18780;SDS011;9519;51.890;8.970;2022-08-19T13:23:03;5.25;;;2.00;;
18780;SDS011;9519;51.890;8.970;2022-08-19T13:28:06;6.20;;;1.77;;
18780;SDS011;9519;51.890;8.970;2022-08-19T13:33:08;4.13;;;1.80;;
18780;SDS011;9519;51.890;8.970;2022-08-19T13:38:21;3.75;;;1.70;;
18780;SDS011;9519;51.890;8.970;2022-08-19T13:43:40;4.72;;;1.70;;
18780;SDS011;9519;51.890;8.970;2022-08-19T13:49:09;4.45;;;1.73;;
18780;SDS011;9519;51.890;8.970;2022-08-19T13:54:53;4.63;;;1.95;;
18780;SDS011;9519;51.890;8.970;2022-08-19T13:59:59;3.90;;;1.55;;
18780;SDS011;9519;51.890;8.970;2022-08-19T14:05:18;3.78;;;1.80;;
18780;SDS011;9519;51.890;8.970;2022-08-19T14:10:58;2.75;;;1.80;;
18780;SDS011;9519;51.890;8.970;2022-08-19T14:16:01;4.78;;;1.77;;
18780;SDS011;9519;51.890;8.970;2022-08-19T14:21:14;4.40;;;1.65;;
18780;SDS011;9519;51.890;8.970;2022-08-19T14:26:21;3.22;;;1.85;;
18780;SDS011;9519;51.890;8.970;2022-08-19T14:31:24;3.60;;;1.50;;
18780;SDS011;9519;51.890;8.970;2022-08-19T14:36:26;5.43;;;1.77;;
18780;SDS011;9519;51.890;8.970;2022-08-19T14:41:30;4.63;;;1.50;;
18780;SDS011;9519;51.890;8.970;2022-08-19T14:46:32;5.95;;;1.88;;
18780;SDS011;9519;51.890;8.970;2022-08-19T14:51:34;5.60;;;2.03;;
18780;SDS011;9519;51.890;8.970;2022-08-19T14:56:39;4.43;;;1.73;;
18780;SDS011;9519;51.890;8.970;2022-08-19T15:01:42;4.10;;;1.80;;
18780;SDS011;9519;51.890;8.970;2022-08-19T15:06:44;4.78;;;1.80;;
18780;SDS011;9519;51.890;8.970;2022-08-19T15:11:48;4.10;;;1.60;;
18780;SDS011;9519;51.890;8.970;2022-08-19T15:16:50;4.47;;;1.60;;
18780;SDS011;9519;51.890;8.970;2022-08-19T15:21:52;3.80;;;1.80;;
18780;SDS011;9519;51.890;8.970;2022-08-19T15:26:56;5.25;;;2.20;;
18780;SDS011;9519;51.890;8.970;2022-08-19T15:31:59;5.13;;;2.00;;
18780;SDS011;9519;51.890;8.970;2022-08-19T15:37:01;6.13;;;2.17;;
18780;SDS011;9519;51.890;8.970;2022-08-19T15:42:06;5.38;;;1.80;;
18780;SDS011;9519;51.890;8.970;2022-08-19T15:47:09;4.30;;;2.05;;
18780;SDS011;9519;51.890;8.970;2022-08-19T15:52:11;5.10;;;2.28;;
18780;SDS011;9519;51.890;8.970;2022-08-19T16:03:15;4.57;;;1.90;;
18780;SDS011;9519;51.890;8.970;2022-08-19T16:08:35;3.03;;;1.60;;
18780;SDS011;9519;51.890;8.970;2022-08-19T16:13:38;3.45;;;1.83;;
18780;SDS011;9519;51.890;8.970;2022-08-19T16:18:41;4.50;;;2.03;;
18780;SDS011;9519;51.890;8.970;2022-08-19T16:23:43;4.43;;;1.88;;
18780;SDS011;9519;51.890;8.970;2022-08-19T16:28:47;4.38;;;1.73;;
18780;SDS011;9519;51.890;8.970;2022-08-19T16:33:49;4.40;;;1.85;;
18780;SDS011;9519;51.890;8.970;2022-08-19T16:38:52;4.70;;;2.08;;
18780;SDS011;9519;51.890;8.970;2022-08-19T16:43:56;4.53;;;2.10;;
18780;SDS011;9519;51.890;8.970;2022-08-19T16:48:59;2.92;;;1.80;;
18780;SDS011;9519;51.890;8.970;2022-08-19T16:54:01;5.88;;;2.67;;
18780;SDS011;9519;51.890;8.970;2022-08-19T16:59:12;4.15;;;1.73;;
18780;SDS011;9519;51.890;8.970;2022-08-19T17:04:15;5.25;;;1.95;;
18780;SDS011;9519;51.890;8.970;2022-08-19T17:09:18;5.13;;;1.80;;
18780;SDS011;9519;51.890;8.970;2022-08-19T17:14:21;4.25;;;1.95;;
18780;SDS011;9519;51.890;8.970;2022-08-19T17:19:25;3.53;;;1.80;;
18780;SDS011;9519;51.890;8.970;2022-08-19T17:24:27;3.60;;;2.05;;
18780;SDS011;9519;51.890;8.970;2022-08-19T17:29:31;4.28;;;2.05;;
18780;SDS011;9519;51.890;8.970;2022-08-19T17:34:33;4.28;;;1.90;;
18780;SDS011;9519;51.890;8.970;2022-08-19T17:39:40;5.78;;;2.15;;
18780;SDS011;9519;51.890;8.970;2022-08-19T17:44:43;3.38;;;1.98;;
18780;SDS011;9519;51.890;8.970;2022-08-19T17:49:45;4.43;;;2.17;;
18780;SDS011;9519;51.890;8.970;2022-08-19T17:54:47;3.78;;;1.98;;
18780;SDS011;9519;51.890;8.970;2022-08-19T17:59:51;4.05;;;2.00;;
18780;SDS011;9519;51.890;8.970;2022-08-19T18:04:54;4.63;;;1.92;;
18780;SDS011;9519;51.890;8.970;2022-08-19T18:09:56;3.65;;;2.00;;
18780;SDS011;9519;51.890;8.970;2022-08-19T18:15:00;4.90;;;2.10;;
18780;SDS011;9519;51.890;8.970;2022-08-19T18:20:03;6.28;;;1.95;;
18780;SDS011;9519;51.890;8.970;2022-08-19T18:25:09;5.97;;;2.15;;
18780;SDS011;9519;51.890;8.970;2022-08-19T18:30:17;6.22;;;2.03;;
18780;SDS011;9519;51.890;8.970;2022-08-19T18:35:22;4.22;;;2.38;;
18780;SDS011;9519;51.890;8.970;2022-08-19T18:40:29;3.95;;;2.40;;
18780;SDS011;9519;51.890;8.970;2022-08-19T18:45:50;6.38;;;2.28;;
18780;SDS011;9519;51.890;8.970;2022-08-19T18:51:10;6.82;;;2.47;;
18780;SDS011;9519;51.890;8.970;2022-08-19T18:56:15;4.07;;;2.28;;
18780;SDS011;9519;51.890;8.970;2022-08-19T19:01:24;5.55;;;2.63;;
18780;SDS011;9519;51.890;8.970;2022-08-19T19:06:31;4.72;;;2.67;;
18780;SDS011;9519;51.890;8.970;2022-08-19T19:11:38;5.20;;;2.20;;
18780;SDS011;9519;51.890;8.970;2022-08-19T19:16:45;5.43;;;2.90;;
18780;SDS011;9519;51.890;8.970;2022-08-19T19:21:48;5.53;;;3.05;;
18780;SDS011;9519;51.890;8.970;2022-08-19T19:26:51;6.28;;;3.17;;
18780;SDS011;9519;51.890;8.970;2022-08-19T19:31:55;5.03;;;2.95;;
18780;SDS011;9519;51.890;8.970;2022-08-19T19:36:57;4.97;;;3.05;;
18780;SDS011;9519;51.890;8.970;2022-08-19T19:41:59;4.75;;;3.10;;
18780;SDS011;9519;51.890;8.970;2022-08-19T19:47:08;5.95;;;2.88;;
18780;SDS011;9519;51.890;8.970;2022-08-19T19:52:10;5.35;;;2.88;;
18780;SDS011;9519;51.890;8.970;2022-08-19T19:57:12;5.45;;;2.75;;
18780;SDS011;9519;51.890;8.970;2022-08-19T20:02:16;7.38;;;3.45;;
18780;SDS011;9519;51.890;8.970;2022-08-19T20:07:20;6.57;;;3.33;;
18780;SDS011;9519;51.890;8.970;2022-08-19T20:12:43;5.22;;;2.42;;
18780;SDS011;9519;51.890;8.970;2022-08-19T20:17:49;6.00;;;3.00;;
18780;SDS011;9519;51.890;8.970;2022-08-19T20:22:51;5.60;;;3.40;;
18780;SDS011;9519;51.890;8.970;2022-08-19T20:27:54;5.82;;;3.35;;
18780;SDS011;9519;51.890;8.970;2022-08-19T20:32:58;8.23;;;3.53;;
18780;SDS011;9519;51.890;8.970;2022-08-19T20:38:05;7.22;;;3.55;;
18780;SDS011;9519;51.890;8.970;2022-08-19T20:43:08;6.05;;;3.25;;
18780;SDS011;9519;51.890;8.970;2022-08-19T20:48:14;4.72;;;3.22;;
18780;SDS011;9519;51.890;8.970;2022-08-19T20:53:17;7.70;;;3.95;;
18780;SDS011;9519;51.890;8.970;2022-08-19T20:58:23;10.20;;;4.00;;
18780;SDS011;9519;51.890;8.970;2022-08-19T21:03:28;6.95;;;3.67;;
18780;SDS011;9519;51.890;8.970;2022-08-19T21:08:34;7.93;;;4.63;;
18780;SDS011;9519;51.890;8.970;2022-08-19T21:13:37;7.13;;;4.75;;
18780;SDS011;9519;51.890;8.970;2022-08-19T21:18:41;6.40;;;3.83;;
18780;SDS011;9519;51.890;8.970;2022-08-19T21:23:43;6.40;;;4.43;;
18780;SDS011;9519;51.890;8.970;2022-08-19T21:28:45;7.00;;;4.32;;
18780;SDS011;9519;51.890;8.970;2022-08-19T21:33:48;7.82;;;3.92;;
18780;SDS011;9519;51.890;8.970;2022-08-19T21:38:52;6.63;;;4.57;;
18780;SDS011;9519;51.890;8.970;2022-08-19T21:43:54;7.03;;;4.30;;
18780;SDS011;9519;51.890;8.970;2022-08-19T21:48:58;5.45;;;4.10;;
18780;SDS011;9519;51.890;8.970;2022-08-19T21:54:00;6.38;;;4.10;;
18780;SDS011;9519;51.890;8.970;2022-08-19T21:59:02;6.97;;;4.88;;
18780;SDS011;9519;51.890;8.970;2022-08-19T22:04:07;6.88;;;4.68;;
18780;SDS011;9519;51.890;8.970;2022-08-19T22:09:10;7.80;;;4.60;;
18780;SDS011;9519;51.890;8.970;2022-08-19T22:14:12;7.90;;;4.90;;
18780;SDS011;9519;51.890;8.970;2022-08-19T22:19:15;8.98;;;4.82;;
18780;SDS011;9519;51.890;8.970;2022-08-19T22:24:17;7.65;;;4.90;;
18780;SDS011;9519;51.890;8.970;2022-08-19T22:29:19;6.70;;;5.55;;
18780;SDS011;9519;51.890;8.970;2022-08-19T22:34:23;6.85;;;5.20;;
18780;SDS011;9519;51.890;8.970;2022-08-19T22:39:25;8.00;;;5.28;;
18780;SDS011;9519;51.890;8.970;2022-08-19T22:44:27;7.00;;;5.15;;
18780;SDS011;9519;51.890;8.970;2022-08-19T22:49:31;8.90;;;5.28;;
18780;SDS011;9519;51.890;8.970;2022-08-19T22:54:33;9.15;;;5.47;;
18780;SDS011;9519;51.890;8.970;2022-08-19T22:59:35;9.32;;;6.25;;
18780;SDS011;9519;51.890;8.970;2022-08-19T23:04:39;8.10;;;6.35;;
18780;SDS011;9519;51.890;8.970;2022-08-19T23:09:41;10.60;;;7.07;;
18780;SDS011;9519;51.890;8.970;2022-08-19T23:14:44;9.45;;;7.78;;
18780;SDS011;9519;51.890;8.970;2022-08-19T23:19:47;11.02;;;8.02;;
18780;SDS011;9519;51.890;8.970;2022-08-19T23:24:50;13.02;;;9.75;;
18780;SDS011;9519;51.890;8.970;2022-08-19T23:29:53;15.52;;;11.43;;
18780;SDS011;9519;51.890;8.970;2022-08-19T23:35:14;17.77;;;13.20;;
18780;SDS011;9519;51.890;8.970;2022-08-19T23:40:16;17.50;;;13.38;;
18780;SDS011;9519;51.890;8.970;2022-08-19T23:45:21;17.17;;;14.15;;
18780;SDS011;9519;51.890;8.970;2022-08-19T23:50:27;18.48;;;14.85;;
18780;SDS011;9519;51.890;8.970;2022-08-19T23:55:31;17.23;;;14.82;;
